»·PEaware :: N972TB 60OR-KEUG

N972TB :: 60OR-KEUG

FLIGHT INFORMATION

Flight Status: Arrived
Operator: Privately registered:
United States
More flights under this callsign
Pilot: Justin A. (23118)
Aircraft: CESSNA 172 SKYHAWK
(C172)
More flights by this aircraft type
Origin: 60OR Whitaker
United States
Destination: KEUG Mahlon Sweet
United States
More flights between these airports :: More routes between these airports
Route: +EUG
File this flight plan on PilotEdge
Remarks:
Altitude:
(Current/Filed)
10,000ft
Speed:
(Current/Filed)
110kts
Departed: 18-May-19 09:19 PM
Arrived: 18-May-19 10:13 PM
Distance/Time
Traveled:
42nm/0:54
Distance/Time
To Go:
Arrived

Flight Plot

Page will automatically refresh every two minutes.

Flight plan parsing failed; only flown route is shown


Map Options




Map Legend


Flown Route
Filed Route
Departure Airport
Arrival Airport
Navaid (VOR, NDB)
Fix

Horizontal Profiles

Position Reports

Time Latitude Longitude Heading Altitude Ground
Speed
18-May-19 21:17 43.440993 -123.312833 332 2899ft 79kts
18-May-19 21:18 43.462592 -123.325348 5 3399ft 108kts
18-May-19 21:19 43.490965 -123.319784 9 3907ft 98kts
18-May-19 21:20 43.517966 -123.314947 10 4505ft 98kts
18-May-19 21:21 43.545238 -123.310292 11 5106ft 99kts
18-May-19 21:22 43.574152 -123.305302 11 5697ft 116kts
18-May-19 21:23 43.609660 -123.299224 11 5947ft 142kts
18-May-19 21:24 43.649928 -123.292567 11 5943ft 143kts
18-May-19 21:25 43.689806 -123.285744 11 5939ft 144kts
18-May-19 21:26 43.729806 -123.279019 11 5941ft 144kts
18-May-19 21:27 43.756242 -123.274633 11 5939ft 144kts
18-May-19 21:28 43.426510 -123.279798 6 577ft 0kts
18-May-19 21:29 43.433771 -123.275760 0 715ft 72kts
18-May-19 21:30 43.439232 -123.298769 337 1671ft 81kts
18-May-19 21:31 43.463413 -123.309574 4 2605ft 86kts
18-May-19 21:32 43.486409 -123.297874 21 3508ft 91kts
18-May-19 21:33 43.511637 -123.289256 17 4394ft 96kts
18-May-19 21:34 43.538882 -123.284382 15 5256ft 101kts
18-May-19 21:35 43.574223 -123.284262 359 5144ft 154kts
18-May-19 21:36 43.611553 -123.289512 339 5708ft 119kts
18-May-19 21:37 43.647226 -123.292596 9 5946ft 145kts
18-May-19 21:38 43.686956 -123.286188 11 5944ft 142kts
18-May-19 21:39 43.726021 -123.279642 11 5943ft 141kts
18-May-19 21:40 43.765043 -123.273097 11 5940ft 140kts
18-May-19 21:41 43.804232 -123.266461 11 5934ft 142kts
18-May-19 21:42 43.843337 -123.259871 11 5935ft 141kts
18-May-19 21:43 43.882579 -123.253187 11 5932ft 143kts
18-May-19 21:44 43.921734 -123.246465 10 5932ft 142kts
18-May-19 21:45 43.960602 -123.239997 11 5959ft 141kts
18-May-19 21:46 43.999515 -123.233316 11 5957ft 141kts
18-May-19 21:47 44.038594 -123.229522 7 5956ft 140kts
18-May-19 21:48 44.077617 -123.226278 5 6002ft 146kts
18-May-19 21:49 44.113019 -123.223668 8 5598ft 131kts
18-May-19 21:50 44.148933 -123.222121 3 4914ft 127kts
18-May-19 21:51 44.182048 -123.221274 4 4116ft 121kts
18-May-19 21:52 44.216237 -123.220448 3 3194ft 115kts
18-May-19 21:53 44.249825 -123.221323 1 3199ft 126kts
18-May-19 21:54 44.285459 -123.220962 25 3223ft 127kts
18-May-19 21:55 44.313887 -123.192449 45 3226ft 123kts
18-May-19 21:56 44.338730 -123.160988 46 3235ft 119kts
18-May-19 21:57 44.364304 -123.127494 47 3259ft 128kts
18-May-19 21:58 44.380719 -123.087443 118 3243ft 121kts
18-May-19 21:59 44.361104 -123.102776 287 3444ft 129kts
18-May-19 22:00 44.384784 -123.138692 267 3594ft 125kts
18-May-19 22:01 44.377416 -123.177295 286 3607ft 106kts
18-May-19 22:02 44.358707 -123.188922 161 3513ft 92kts
18-May-19 22:03 44.333272 -123.190596 216 3521ft 100kts
18-May-19 22:04 44.313124 -123.215298 191 3503ft 95kts
18-May-19 22:05 44.285511 -123.220481 180 3293ft 110kts
18-May-19 22:06 44.252965 -123.221020 177 2688ft 112kts
18-May-19 22:07 44.223956 -123.220503 178 2123ft 101kts
18-May-19 22:08 44.196392 -123.220047 179 1612ft 99kts
18-May-19 22:09 44.173143 -123.219751 179 1128ft 86kts
18-May-19 22:10 44.148736 -123.219360 181 659ft 87kts
18-May-19 22:11 44.128936 -123.219090 187 360ft 49kts
18-May-19 22:12 44.122473 -123.217043 183 365ft 27kts
18-May-19 22:13 44.117598 -123.216898 135 366ft 0kts
18-May-19 22:14 44.117552 -123.215493 114 368ft 3kts
18-May-19 22:15 44.117547 -123.215476 114 368ft 0kts
18-May-19 22:16 44.117547 -123.215476 114 368ft 0kts
18-May-19 22:17 44.117547 -123.215476 114 368ft 0kts
18-May-19 22:18 44.117547 -123.215476 114 368ft 0kts
18-May-19 22:19 44.117547 -123.215476 114 368ft 0kts
18-May-19 22:20 44.117547 -123.215476 114 368ft 0kts
18-May-19 22:21 44.117547 -123.215476 114 368ft 0kts
18-May-19 22:22 44.117547 -123.215476 114 368ft 0kts
18-May-19 22:23 44.117547 -123.215476 114 368ft 0kts
18-May-19 22:24 44.117547 -123.215476 114 368ft 0kts
18-May-19 22:25 44.117547 -123.215476 114 368ft 0kts
18-May-19 22:26 44.117547 -123.215476 114 368ft 0kts

Navigation Log

Ident Type
Flight plan parsing failed, navigation log unavailable